Time;durP1;ratioP1;P1;durP2;ratioP2;P2;SDS_P1;SDS_P2;PMS_P1;PMS_P2;Temp;Humidity;BMP_temperature;BMP_pressure;BME280_temperature;BME280_humidity;BME280_pressure;Samples;Min_cycle;Max_cycle;Signal;HPM_P1;HPM_P2
2022/04/01 00:00:28;;;;;;;23.40;15.57;;;5.30;99.90;;;;;;5011818;28;20481;-70
2022/04/01 00:02:55;;;;;;;21.20;14.90;;;5.30;99.90;;;;;;5012306;28;20835;-70
2022/04/01 00:05:21;;;;;;;22.50;16.53;;;5.30;99.90;;;;;;5011191;28;20452;-69
2022/04/01 00:07:48;;;;;;;26.50;16.93;;;5.20;99.90;;;;;;5012048;28;20517;-69
2022/04/01 00:10:15;;;;;;;26.00;17.00;;;5.30;99.90;;;;;;5011934;28;20450;-70
2022/04/01 00:12:45;;;;;;;19.80;14.63;;;5.20;99.90;;;;;;5011583;28;20470;-69
2022/04/01 00:15:13;;;;;;;23.37;16.20;;;5.20;99.90;;;;;;5009830;28;20892;-69
2022/04/01 00:17:40;;;;;;;24.13;16.37;;;5.20;99.90;;;;;;5011559;28;20446;-69
2022/04/01 00:20:09;;;;;;;23.60;15.80;;;5.20;99.90;;;;;;5011612;28;20493;-69
2022/04/01 00:22:36;;;;;;;25.53;15.73;;;5.20;99.90;;;;;;5011662;28;20454;-69
2022/04/01 00:25:03;;;;;;;23.00;17.00;;;5.20;99.90;;;;;;5010293;28;20444;-70
2022/04/01 00:27:30;;;;;;;24.80;17.00;;;5.20;99.90;;;;;;5011436;28;20453;-70
2022/04/01 00:29:58;;;;;;;23.80;17.00;;;5.20;99.90;;;;;;5011616;28;20454;-70
2022/04/01 00:32:25;;;;;;;21.73;14.80;;;5.20;99.90;;;;;;5011190;28;21022;-69
2022/04/01 00:34:53;;;;;;;19.83;13.30;;;5.20;99.90;;;;;;5010129;28;20515;-69
2022/04/01 00:37:20;;;;;;;20.00;14.77;;;5.20;99.90;;;;;;5011466;28;20986;-69
2022/04/01 00:39:47;;;;;;;20.43;14.60;;;5.10;99.90;;;;;;5011145;28;20462;-69
2022/04/01 00:42:14;;;;;;;23.00;16.10;;;5.10;99.90;;;;;;5011230;28;20493;-69
2022/04/01 00:44:42;;;;;;;24.20;16.27;;;5.10;99.90;;;;;;5010568;28;20462;-69
2022/04/01 00:47:13;;;;;;;25.40;17.07;;;5.10;99.90;;;;;;5010950;28;20454;-69
2022/04/01 00:49:40;;;;;;;26.13;17.47;;;5.10;99.90;;;;;;5011227;28;20454;-70
2022/04/01 00:52:09;;;;;;;27.90;18.20;;;5.10;99.90;;;;;;5011095;28;20469;-70
2022/04/01 00:54:36;;;;;;;27.27;18.43;;;5.00;99.90;;;;;;5009981;28;20818;-70
2022/04/01 00:57:04;;;;;;;24.10;16.77;;;5.10;99.90;;;;;;5011594;28;20456;-70
2022/04/01 00:59:32;;;;;;;27.50;17.37;;;5.10;99.90;;;;;;5011535;28;20490;-68
2022/04/01 01:01:59;;;;;;;21.93;15.10;;;5.00;99.90;;;;;;5011390;28;20819;-70
2022/04/01 01:04:29;;;;;;;22.10;15.63;;;5.10;99.90;;;;;;5010413;28;20450;-69
2022/04/01 01:06:58;;;;;;;24.13;15.50;;;5.10;99.90;;;;;;5011299;28;20896;-70
2022/04/01 01:09:26;;;;;;;19.93;14.00;;;5.10;99.90;;;;;;5011188;28;20458;-70
2022/04/01 01:11:54;;;;;;;24.97;15.13;;;5.10;99.90;;;;;;5011013;28;20826;-70
2022/04/01 01:14:26;;;;;;;24.90;17.13;;;5.10;99.90;;;;;;5010064;28;20460;-69
2022/04/01 01:16:53;;;;;;;24.10;15.17;;;5.10;99.90;;;;;;5013500;28;20532;-70
2022/04/01 01:19:21;;;;;;;20.90;14.37;;;5.10;99.90;;;;;;5012428;28;20445;-71
2022/04/01 01:21:52;;;;;;;23.80;15.03;;;5.00;99.90;;;;;;5011936;28;20540;-70
2022/04/01 01:24:28;;;;;;;22.93;16.07;;;5.00;99.90;;;;;;5010988;28;20510;-71
2022/04/01 01:26:57;;;;;;;17.63;13.47;;;5.00;99.90;;;;;;5011620;28;20806;-70
2022/04/01 01:29:26;;;;;;;20.47;14.53;;;4.90;99.90;;;;;;5011626;28;20454;-70
2022/04/01 01:31:54;;;;;;;20.90;15.20;;;4.90;99.90;;;;;;5011570;28;20462;-70
2022/04/01 01:34:21;;;;;;;18.80;14.17;;;4.80;99.90;;;;;;5010299;28;20446;-71
2022/04/01 01:36:49;;;;;;;18.63;12.80;;;4.80;99.90;;;;;;5011669;28;20449;-70
2022/04/01 01:39:15;;;;;;;24.40;16.10;;;4.80;99.90;;;;;;5011121;28;20493;-71
2022/04/01 01:41:45;;;;;;;19.30;13.67;;;4.80;99.90;;;;;;5011575;28;20617;-71
2022/04/01 01:44:13;;;;;;;19.13;14.50;;;4.80;99.90;;;;;;5010069;28;20453;-70
2022/04/01 01:46:40;;;;;;;19.93;13.57;;;4.80;99.90;;;;;;5011471;28;20457;-70
2022/04/01 01:49:08;;;;;;;21.67;15.20;;;4.80;99.90;;;;;;5010519;28;20493;-70
2022/04/01 01:57:05;;;;;;;24.43;14.63;;;4.80;99.90;;;;;;5010235;28;20437;-70
2022/04/01 01:59:33;;;;;;;20.60;15.40;;;4.80;99.90;;;;;;5010385;28;20461;-70
2022/04/01 02:02:00;;;;;;;18.40;13.90;;;4.80;99.90;;;;;;5010258;28;20713;-69
2022/04/01 02:04:27;;;;;;;19.73;14.57;;;4.80;99.90;;;;;;5009155;28;20564;-70
2022/04/01 02:06:53;;;;;;;19.17;15.13;;;4.80;99.90;;;;;;5010055;28;20476;-70
2022/04/01 02:09:21;;;;;;;20.47;14.47;;;4.80;99.90;;;;;;5009824;28;20450;-70
2022/04/01 02:11:48;;;;;;;21.50;13.83;;;4.70;99.90;;;;;;5009857;28;20476;-69
2022/04/01 02:14:16;;;;;;;19.47;13.23;;;4.70;99.90;;;;;;5008888;28;20444;-69
2022/04/01 02:16:44;;;;;;;20.60;14.37;;;4.70;99.90;;;;;;5010012;28;20446;-69
2022/04/01 02:19:11;;;;;;;20.30;14.20;;;4.70;99.90;;;;;;5010078;28;20857;-70
2022/04/01 02:21:39;;;;;;;20.13;13.57;;;4.70;99.90;;;;;;5009541;28;20482;-70
2022/04/01 02:24:10;;;;;;;22.80;15.37;;;4.70;99.90;;;;;;5008674;28;20446;-71
2022/04/01 02:26:37;;;;;;;20.07;14.37;;;4.70;99.90;;;;;;5009657;28;20575;-68
2022/04/01 02:29:05;;;;;;;20.33;14.43;;;4.70;99.90;;;;;;5009884;28;20460;-70
2022/04/01 02:31:33;;;;;;;21.87;15.27;;;4.60;99.90;;;;;;5009698;28;20875;-71
2022/04/01 02:34:00;;;;;;;21.90;16.20;;;4.70;99.90;;;;;;5009177;28;20452;-70
2022/04/01 02:36:27;;;;;;;21.57;16.23;;;4.70;99.90;;;;;;5008974;28;20552;-70
2022/04/01 02:38:54;;;;;;;23.93;16.17;;;4.70;99.90;;;;;;5013140;28;21248;-70
2022/04/01 02:41:22;;;;;;;20.30;15.70;;;4.70;99.90;;;;;;5013437;28;20983;-70
2022/04/01 02:43:50;;;;;;;22.30;15.40;;;4.70;99.90;;;;;;5013254;28;20453;-69
2022/04/01 02:46:17;;;;;;;21.20;15.30;;;4.70;99.90;;;;;;5013199;28;20454;-70
2022/04/01 02:48:45;;;;;;;21.53;16.63;;;4.60;99.90;;;;;;5013820;28;20456;-69
2022/04/01 02:51:12;;;;;;;22.67;15.90;;;4.60;99.90;;;;;;5013711;28;20466;-70
2022/04/01 02:53:39;;;;;;;24.93;17.80;;;4.60;99.90;;;;;;5013151;28;20449;-69
2022/04/01 02:56:07;;;;;;;28.13;19.10;;;4.60;99.90;;;;;;5012830;28;20448;-69
2022/04/01 02:58:34;;;;;;;24.20;18.27;;;4.60;99.90;;;;;;5013517;28;20652;-69
2022/04/01 03:01:01;;;;;;;23.20;16.50;;;4.60;99.90;;;;;;5013439;28;20477;-71
2022/04/01 03:03:28;;;;;;;28.30;18.53;;;4.60;99.90;;;;;;5012966;28;20473;-68
2022/04/01 03:05:56;;;;;;;22.53;16.20;;;4.70;99.90;;;;;;5012267;28;20644;-69
2022/04/01 03:08:22;;;;;;;25.10;18.20;;;4.60;99.90;;;;;;5013580;28;20442;-70
2022/04/01 03:10:49;;;;;;;18.80;13.87;;;4.60;99.90;;;;;;5013217;28;20473;-69
2022/04/01 03:13:16;;;;;;;25.80;17.93;;;4.60;99.90;;;;;;5012992;28;20445;-69
2022/04/01 03:15:43;;;;;;;21.57;15.37;;;4.60;99.90;;;;;;5011866;28;20461;-70
2022/04/01 03:18:10;;;;;;;21.00;15.53;;;4.60;99.90;;;;;;5012742;28;20982;-70
2022/04/01 03:20:37;;;;;;;17.63;14.30;;;4.50;99.90;;;;;;5012758;28;20960;-68
2022/04/01 03:23:06;;;;;;;15.97;12.03;;;4.50;99.90;;;;;;5013124;28;20481;-70
2022/04/01 03:25:33;;;;;;;18.77;13.33;;;4.40;99.90;;;;;;5011832;28;20489;-69
2022/04/01 03:28:02;;;;;;;15.27;11.50;;;4.40;99.90;;;;;;5012793;28;20537;-70
2022/04/01 03:30:30;;;;;;;19.03;13.47;;;4.30;99.90;;;;;;5012533;28;20450;-69
2022/04/01 03:32:57;;;;;;;17.43;12.97;;;4.30;99.90;;;;;;5012704;28;20441;-69
2022/04/01 03:35:26;;;;;;;15.27;12.30;;;4.30;99.90;;;;;;5011722;28;20449;-70
2022/04/01 03:37:53;;;;;;;16.20;12.63;;;4.30;99.90;;;;;;5012584;28;20464;-71
2022/04/01 03:40:23;;;;;;;18.00;12.83;;;4.30;99.90;;;;;;5012629;28;20465;-71
2022/04/01 03:42:52;;;;;;;18.60;13.27;;;4.30;99.90;;;;;;5012334;28;20489;-69
2022/04/01 03:45:19;;;;;;;19.13;12.83;;;4.20;99.90;;;;;;5010981;28;20442;-69
2022/04/01 03:48:01;;;;;;;17.00;12.57;;;4.20;99.90;;;;;;5011923;28;20450;-69
2022/04/01 03:50:32;;;;;;;16.90;12.47;;;4.20;99.90;;;;;;5012497;28;20493;-69
2022/04/01 03:53:04;;;;;;;18.87;13.20;;;4.30;99.90;;;;;;5011892;28;20449;-69
2022/04/01 03:55:35;;;;;;;16.93;12.63;;;4.30;99.90;;;;;;5011370;28;20952;-70
2022/04/01 03:58:08;;;;;;;16.20;11.77;;;4.20;99.90;;;;;;5011934;28;20454;-69
2022/04/01 04:00:36;;;;;;;17.73;13.07;;;4.30;99.90;;;;;;5011053;28;20446;-70
2022/04/01 04:03:09;;;;;;;16.80;11.43;;;4.30;99.90;;;;;;5011809;28;20481;-69
2022/04/01 04:05:37;;;;;;;18.07;13.30;;;4.30;99.90;;;;;;5010463;28;20445;-70
2022/04/01 04:08:05;;;;;;;14.67;11.43;;;4.30;99.90;;;;;;5012071;28;20440;-70
2022/04/01 04:10:34;;;;;;;17.73;13.80;;;4.30;99.90;;;;;;5012031;28;20450;-69
2022/04/01 04:13:03;;;;;;;14.90;12.10;;;4.20;99.90;;;;;;5012178;28;20503;-69
2022/04/01 04:15:39;;;;;;;16.30;12.10;;;4.30;99.90;;;;;;5010862;28;20493;-69
2022/04/01 04:18:10;;;;;;;13.90;10.60;;;4.30;99.90;;;;;;5011970;28;20448;-69
2022/04/01 04:20:43;;;;;;;16.83;12.20;;;4.30;99.90;;;;;;5011740;28;21265;-69
2022/04/01 04:23:17;;;;;;;16.37;11.57;;;4.20;99.90;;;;;;5012091;28;20481;-70
2022/04/01 04:25:53;;;;;;;15.23;11.10;;;4.30;99.90;;;;;;5010747;28;20448;-69
2022/04/01 04:28:26;;;;;;;13.70;10.37;;;4.30;99.90;;;;;;5011562;28;20548;-68
2022/04/01 04:30:55;;;;;;;13.20;10.50;;;4.20;99.90;;;;;;5011765;28;20488;-72
2022/04/01 04:33:26;;;;;;;12.43;10.17;;;4.20;99.90;;;;;;5011787;28;20445;-72
2022/04/01 04:35:53;;;;;;;13.90;11.23;;;4.20;99.90;;;;;;5010717;28;20466;-68
2022/04/01 04:38:21;;;;;;;14.43;11.23;;;4.20;99.90;;;;;;5009932;28;20848;-68
2022/04/01 04:40:52;;;;;;;14.47;10.87;;;4.20;99.90;;;;;;5008174;28;20863;-69
2022/04/01 04:43:21;;;;;;;14.27;10.40;;;4.20;99.90;;;;;;5008388;28;20473;-68
2022/04/01 04:45:49;;;;;;;13.50;10.57;;;4.20;99.90;;;;;;5010279;28;20816;-68
2022/04/01 04:48:18;;;;;;;13.90;10.77;;;4.20;99.90;;;;;;5011673;28;20454;-69
2022/04/01 04:50:49;;;;;;;17.07;10.23;;;4.20;99.90;;;;;;5003375;28;20451;-68
2022/04/01 04:53:19;;;;;;;12.37;9.40;;;4.10;99.90;;;;;;5004440;28;21034;-67
2022/04/01 04:55:49;;;;;;;9.07;7.20;;;4.10;99.90;;;;;;4998682;28;20461;-69
2022/04/01 04:58:34;;;;;;;10.40;7.50;;;4.00;99.90;;;;;;5000236;28;20871;-69
2022/04/01 05:01:17;;;;;;;10.30;7.93;;;3.90;99.90;;;;;;4999185;28;20565;-70
2022/04/01 05:04:11;;;;;;;10.60;8.07;;;3.90;99.90;;;;;;4991001;28;20486;-69
2022/04/01 05:06:44;;;;;;;10.63;9.03;;;3.90;99.90;;;;;;4992856;28;20537;-70
2022/04/01 05:09:21;;;;;;;13.30;9.53;;;3.80;99.90;;;;;;5005017;28;20971;-70
2022/04/01 05:11:57;;;;;;;13.97;10.20;;;3.80;99.90;;;;;;5007607;28;20527;-70
2022/04/01 05:14:38;;;;;;;14.47;10.17;;;3.80;99.90;;;;;;5007312;28;20450;-68
2022/04/01 05:17:08;;;;;;;14.10;10.40;;;3.80;99.90;;;;;;5009899;28;20528;-68
2022/04/01 05:19:38;;;;;;;17.57;12.80;;;3.80;99.90;;;;;;5008125;28;20456;-68
2022/04/01 05:22:08;;;;;;;15.37;11.80;;;3.80;99.90;;;;;;5010050;28;20470;-69
2022/04/01 05:24:40;;;;;;;15.77;10.90;;;3.90;99.90;;;;;;5009204;28;20462;-68
2022/04/01 05:27:24;;;;;;;15.00;12.60;;;3.90;99.90;;;;;;5010219;28;20449;-66
2022/04/01 05:29:59;;;;;;;10.87;8.83;;;3.90;99.90;;;;;;5010379;28;20828;-67
2022/04/01 05:32:33;;;;;;;12.60;9.00;;;3.90;99.90;;;;;;5009965;28;20479;-67
2022/04/01 05:35:01;;;;;;;11.30;8.03;;;3.90;99.90;;;;;;5008990;28;20453;-66
2022/04/01 05:37:29;;;;;;;11.63;8.60;;;3.80;99.90;;;;;;5009612;28;20453;-66
2022/04/01 05:39:57;;;;;;;11.40;8.40;;;3.80;99.90;;;;;;5010145;28;20501;-65
2022/04/01 05:42:27;;;;;;;13.47;8.80;;;3.80;99.90;;;;;;5004894;28;20858;-66
2022/04/01 05:44:56;;;;;;;12.57;10.37;;;3.80;99.90;;;;;;5008790;28;20831;-70
2022/04/01 05:47:24;;;;;;;11.63;8.50;;;3.80;99.90;;;;;;5009981;28;20458;-68
2022/04/01 05:49:55;;;;;;;12.00;9.40;;;3.80;99.90;;;;;;5009352;28;20454;-66
2022/04/01 05:52:22;;;;;;;14.87;10.10;;;3.80;99.90;;;;;;5007141;28;20487;-67
2022/04/01 05:54:50;;;;;;;12.90;10.77;;;3.90;99.90;;;;;;5003861;28;20458;-69
2022/04/01 05:57:20;;;;;;;16.60;12.47;;;3.90;99.90;;;;;;5008525;28;20455;-67
2022/04/01 05:59:48;;;;;;;12.90;9.10;;;3.90;99.90;;;;;;5009731;28;20458;-69
2022/04/01 06:02:34;;;;;;;11.87;9.10;;;3.90;99.90;;;;;;5004328;28;20871;-68
2022/04/01 06:05:12;;;;;;;13.70;9.53;;;3.90;99.90;;;;;;5004143;28;20883;-69
2022/04/01 06:07:49;;;;;;;13.30;9.80;;;3.90;99.90;;;;;;5004090;28;20956;-69
2022/04/01 06:10:22;;;;;;;12.90;10.13;;;3.90;99.90;;;;;;5003637;28;20445;-69
2022/04/01 06:13:04;;;;;;;12.57;9.60;;;3.90;99.90;;;;;;5013700;28;20474;-68
2022/04/01 06:15:42;;;;;;;12.20;9.97;;;3.90;99.90;;;;;;5000397;28;20462;-68
2022/04/01 06:18:27;;;;;;;12.50;9.20;;;3.80;99.90;;;;;;5006591;28;20441;-69
2022/04/01 06:20:55;;;;;;;11.90;9.77;;;3.80;99.90;;;;;;5013155;28;20576;-69
2022/04/01 06:23:30;;;;;;;14.47;10.70;;;3.90;99.90;;;;;;5013188;28;20481;-70
2022/04/01 06:26:00;;;;;;;11.70;9.57;;;3.90;99.90;;;;;;5012401;28;20441;-70
2022/04/01 06:28:30;;;;;;;12.03;9.80;;;3.80;99.90;;;;;;5013963;28;20449;-70
2022/04/01 06:31:05;;;;;;;14.23;11.40;;;3.80;99.90;;;;;;5013545;28;20844;-70
2022/04/01 06:33:41;;;;;;;17.80;12.43;;;3.90;99.90;;;;;;5013626;28;20451;-69
2022/04/01 06:36:15;;;;;;;17.10;13.43;;;3.90;99.90;;;;;;5012366;28;20964;-69
2022/04/01 06:38:50;;;;;;;20.50;14.70;;;3.90;99.90;;;;;;5013632;28;20454;-68
2022/04/01 06:41:21;;;;;;;15.67;13.00;;;3.90;99.90;;;;;;5013476;28;20477;-68
2022/04/01 06:43:48;;;;;;;16.20;11.93;;;3.90;99.90;;;;;;5013112;28;20477;-71
2022/04/01 06:46:17;;;;;;;15.60;12.30;;;3.80;99.90;;;;;;5012295;28;20449;-69
2022/04/01 06:48:43;;;;;;;16.60;12.40;;;3.80;99.90;;;;;;5009088;28;20956;-69
2022/04/01 06:51:11;;;;;;;13.20;11.30;;;3.80;99.90;;;;;;5013369;28;20549;-69
2022/04/01 06:53:39;;;;;;;15.23;11.93;;;3.80;99.90;;;;;;5014094;28;20942;-68
2022/04/01 06:56:06;;;;;;;14.47;11.50;;;3.80;99.90;;;;;;5006497;28;20474;-68
2022/04/01 06:58:33;;;;;;;13.70;11.57;;;3.90;99.90;;;;;;5012329;28;20449;-68
2022/04/01 07:01:00;;;;;;;15.10;11.03;;;3.80;99.90;;;;;;5012711;28;20548;-68
2022/04/01 07:03:29;;;;;;;16.33;11.70;;;3.90;99.90;;;;;;5011144;28;21057;-68
2022/04/01 07:05:56;;;;;;;14.50;11.80;;;3.90;99.90;;;;;;5010750;28;20449;-68
2022/04/01 07:08:23;;;;;;;17.23;13.53;;;3.90;99.90;;;;;;5024991;28;20442;-67
2022/04/01 07:10:50;;;;;;;15.60;12.53;;;4.00;99.90;;;;;;5011995;28;20548;-67
2022/04/01 07:13:17;;;;;;;12.63;10.43;;;4.00;99.90;;;;;;5010479;28;20548;-68
2022/04/01 07:15:45;;;;;;;14.80;11.60;;;4.00;99.90;;;;;;5010223;28;20460;-68
2022/04/01 07:18:12;;;;;;;14.50;11.27;;;4.00;99.90;;;;;;5012687;28;20445;-69
2022/04/01 07:20:40;;;;;;;13.87;11.07;;;4.00;99.90;;;;;;5011708;28;20529;-68
2022/04/01 07:23:07;;;;;;;15.73;12.83;;;4.00;99.90;;;;;;5011805;28;21097;-68
2022/04/01 07:25:34;;;;;;;13.60;11.47;;;4.00;99.90;;;;;;5010539;28;20454;-67
2022/04/01 07:28:01;;;;;;;13.97;11.70;;;4.00;99.90;;;;;;5013058;28;20444;-68
2022/04/01 07:30:28;;;;;;;13.87;11.17;;;4.10;99.90;;;;;;5012612;28;20454;-68
2022/04/01 07:32:58;;;;;;;14.70;11.10;;;4.10;99.90;;;;;;5012487;28;20475;-68
2022/04/01 07:35:26;;;;;;;12.23;9.40;;;4.10;99.90;;;;;;5011183;28;20459;-68
2022/04/01 07:37:54;;;;;;;10.83;8.67;;;4.00;99.90;;;;;;5012271;28;20449;-68
2022/04/01 07:40:21;;;;;;;12.50;9.13;;;4.00;99.90;;;;;;5012085;28;20493;-69
2022/04/01 07:42:49;;;;;;;10.97;9.00;;;4.00;99.90;;;;;;5012261;28;20556;-68
2022/04/01 07:45:16;;;;;;;8.80;7.53;;;4.00;99.90;;;;;;5010891;28;20959;-68
2022/04/01 07:47:44;;;;;;;9.60;7.40;;;4.00;99.90;;;;;;5012219;28;20492;-68
2022/04/01 07:50:12;;;;;;;7.30;6.00;;;4.00;99.90;;;;;;5012048;28;20511;-68
2022/04/01 07:52:40;;;;;;;8.77;5.67;;;4.00;99.90;;;;;;5011961;28;20546;-69
2022/04/01 07:55:10;;;;;;;7.17;5.50;;;4.00;99.90;;;;;;5010888;28;21011;-69
2022/04/01 07:57:37;;;;;;;10.00;7.00;;;4.00;99.90;;;;;;5011963;28;20553;-69
2022/04/01 08:00:05;;;;;;;8.23;6.50;;;4.10;99.90;;;;;;5012008;28;20456;-68
2022/04/01 08:02:32;;;;;;;7.60;6.30;;;4.20;99.90;;;;;;5010778;28;20488;-68
2022/04/01 08:04:59;;;;;;;7.47;5.87;;;4.20;99.90;;;;;;5010569;28;20485;-68
2022/04/01 08:07:27;;;;;;;6.83;5.60;;;4.20;99.90;;;;;;5011732;28;20523;-69
2022/04/01 08:09:54;;;;;;;7.57;5.10;;;4.10;99.90;;;;;;5011891;28;20811;-69
2022/04/01 08:12:22;;;;;;;7.10;4.83;;;4.10;99.90;;;;;;5011832;28;20520;-69
2022/04/01 08:14:49;;;;;;;6.70;5.17;;;4.10;99.90;;;;;;5011406;28;20523;-70
2022/04/01 08:17:15;;;;;;;8.20;5.57;;;4.20;99.90;;;;;;5011826;28;20969;-69
2022/04/01 08:19:43;;;;;;;7.50;5.43;;;4.20;99.90;;;;;;5011761;28;20843;-68
2022/04/01 08:22:10;;;;;;;6.87;5.20;;;4.20;99.90;;;;;;5011915;28;20465;-68
2022/04/01 08:24:38;;;;;;;8.17;5.70;;;4.10;99.90;;;;;;5010467;28;20489;-70
2022/04/01 08:27:05;;;;;;;6.73;4.60;;;4.00;99.90;;;;;;5011625;28;20460;-68
2022/04/01 08:29:34;;;;;;;7.63;4.93;;;4.00;99.90;;;;;;5011229;28;21007;-69
2022/04/01 08:32:01;;;;;;;7.00;5.37;;;3.90;99.90;;;;;;5011285;28;20612;-69
2022/04/01 08:34:28;;;;;;;7.97;5.90;;;3.90;99.90;;;;;;5009347;28;20497;-68
2022/04/01 08:36:55;;;;;;;6.20;4.93;;;3.90;99.90;;;;;;5011320;28;20545;-68
2022/04/01 08:39:22;;;;;;;10.00;6.67;;;4.00;99.90;;;;;;5010857;28;20494;-69
2022/04/01 08:41:49;;;;;;;7.50;6.00;;;4.20;99.90;;;;;;5011089;28;20461;-68
2022/04/01 08:44:16;;;;;;;9.17;6.70;;;4.20;99.90;;;;;;5009868;28;21011;-70
2022/04/01 08:46:45;;;;;;;8.00;6.90;;;4.10;99.90;;;;;;5010845;28;20456;-69
2022/04/01 08:49:12;;;;;;;7.90;5.80;;;4.00;99.90;;;;;;5011093;28;20963;-70
2022/04/01 08:51:40;;;;;;;7.60;6.37;;;4.10;99.90;;;;;;5011242;28;20477;-68
2022/04/01 08:54:06;;;;;;;7.53;6.50;;;4.10;99.90;;;;;;5010400;28;20453;-69
2022/04/01 08:56:33;;;;;;;8.80;6.37;;;4.10;99.90;;;;;;5011112;28;20500;-68
2022/04/01 08:59:00;;;;;;;8.83;7.07;;;4.10;99.90;;;;;;5011022;28;20919;-69
2022/04/01 09:01:40;;;;;;;9.10;6.83;;;4.20;99.90;;;;;;5010710;28;20476;-69
2022/04/01 09:04:22;;;;;;;8.50;6.27;;;4.10;99.90;;;;;;5009871;28;20485;-69
2022/04/01 09:06:50;;;;;;;9.20;5.67;;;4.10;99.90;;;;;;5010691;28;20500;-69
2022/04/01 09:09:29;;;;;;;10.03;6.90;;;4.10;99.90;;;;;;5010726;28;20483;-67
2022/04/01 09:12:07;;;;;;;8.80;6.80;;;4.10;99.90;;;;;;5010484;28;20640;-68
2022/04/01 09:14:35;;;;;;;9.73;7.50;;;4.10;99.90;;;;;;5009558;28;20492;-69
2022/04/01 09:17:02;;;;;;;10.20;7.50;;;4.10;99.90;;;;;;5010313;28;20452;-69
2022/04/01 09:19:32;;;;;;;11.03;7.20;;;4.10;99.90;;;;;;5010472;28;20458;-69
2022/04/01 09:22:14;;;;;;;8.37;5.83;;;4.20;99.90;;;;;;5010343;28;20502;-69
2022/04/01 09:24:57;;;;;;;8.87;6.27;;;4.20;99.90;;;;;;5009083;28;20577;-69
2022/04/01 09:27:46;;;;;;;8.80;5.90;;;4.20;99.90;;;;;;5010156;28;20445;-68
2022/04/01 09:30:15;;;;;;;8.40;6.00;;;4.10;99.90;;;;;;5010359;28;20556;-68
2022/04/01 09:32:44;;;;;;;8.17;6.17;;;4.00;99.90;;;;;;5010620;28;20501;-69
2022/04/01 09:35:13;;;;;;;8.50;6.57;;;4.00;99.90;;;;;;5009673;28;20803;-70
2022/04/01 09:37:41;;;;;;;7.40;6.17;;;4.00;99.90;;;;;;5010726;28;20445;-68
2022/04/01 09:40:10;;;;;;;7.57;6.17;;;4.00;99.90;;;;;;5010627;28;20489;-68
2022/04/01 09:42:38;;;;;;;6.50;5.80;;;4.00;99.90;;;;;;5010524;28;20473;-69
2022/04/01 09:45:06;;;;;;;8.83;7.03;;;3.90;99.90;;;;;;5008992;28;20489;-68
2022/04/01 09:47:38;;;;;;;8.10;6.33;;;3.90;99.90;;;;;;5010092;28;20504;-70
2022/04/01 09:50:15;;;;;;;9.33;6.50;;;3.90;99.90;;;;;;5010586;28;20446;-69
2022/04/01 09:52:42;;;;;;;6.60;5.53;;;4.00;99.90;;;;;;5006761;28;20510;-69
2022/04/01 09:55:10;;;;;;;8.43;6.57;;;4.00;99.90;;;;;;5002493;28;20453;-68
2022/04/01 09:57:37;;;;;;;8.53;7.20;;;4.00;99.90;;;;;;5010563;28;20477;-68
2022/04/01 10:00:06;;;;;;;8.97;7.40;;;4.10;99.90;;;;;;5010263;28;20477;-68
2022/04/01 10:02:33;;;;;;;7.53;6.77;;;4.20;99.90;;;;;;5011084;28;21010;-68
2022/04/01 10:05:00;;;;;;;9.53;6.50;;;4.20;99.90;;;;;;5009508;28;20490;-69
2022/04/01 10:07:32;;;;;;;7.03;6.00;;;4.00;99.90;;;;;;5010667;28;20450;-68
2022/04/01 10:09:59;;;;;;;6.13;5.07;;;4.00;99.90;;;;;;5010597;28;20449;-69
2022/04/01 10:12:28;;;;;;;7.60;6.37;;;4.10;99.90;;;;;;5010009;28;21146;-68
2022/04/01 10:14:58;;;;;;;8.07;6.90;;;4.10;99.90;;;;;;5008872;28;20442;-68
2022/04/01 10:17:30;;;;;;;9.07;6.20;;;4.20;99.90;;;;;;5010295;28;20448;-67
2022/04/01 10:20:00;;;;;;;6.87;5.90;;;4.10;99.90;;;;;;5010138;28;20813;-69
2022/04/01 10:22:28;;;;;;;6.63;5.60;;;4.10;99.90;;;;;;5007888;28;20589;-69
2022/04/01 10:25:03;;;;;;;7.53;5.87;;;4.00;99.90;;;;;;5005359;28;20485;-71
2022/04/01 10:27:37;;;;;;;7.37;6.20;;;4.00;99.90;;;;;;5002018;28;20441;-69
2022/04/01 10:30:05;;;;;;;7.40;5.60;;;4.00;99.90;;;;;;5001222;28;20481;-69
2022/04/01 10:32:38;;;;;;;7.93;6.93;;;4.10;99.90;;;;;;5000975;28;20487;-68
2022/04/01 10:35:08;;;;;;;7.17;6.17;;;4.10;99.90;;;;;;5003673;28;20452;-69
2022/04/01 10:37:37;;;;;;;8.37;6.33;;;4.20;99.90;;;;;;5004370;28;20442;-70
2022/04/01 10:40:09;;;;;;;7.40;6.47;;;4.20;99.90;;;;;;5007744;28;20454;-71
2022/04/01 10:42:38;;;;;;;7.47;6.63;;;4.10;99.90;;;;;;5000784;28;20867;-68
2022/04/01 10:45:08;;;;;;;9.23;6.40;;;4.00;99.90;;;;;;5009321;28;20592;-70
2022/04/01 10:53:35;;;;;;;9.73;6.27;;;4.00;99.90;;;;;;5003987;28;20496;-71
2022/04/01 10:56:27;;;;;;;6.43;5.70;;;4.10;99.90;;;;;;5000761;28;20450;-70
2022/04/01 10:59:09;;;;;;;7.90;6.40;;;4.10;99.90;;;;;;5008266;28;20461;-71
2022/04/01 11:01:38;;;;;;;6.53;5.87;;;4.00;99.90;;;;;;5007553;28;20473;-69
2022/04/01 11:04:28;;;;;;;7.30;5.97;;;4.00;99.90;;;;;;5005844;28;20663;-70
2022/04/01 11:06:56;;;;;;;6.83;6.10;;;3.90;99.90;;;;;;5002860;28;20565;-70
2022/04/01 11:09:36;;;;;;;7.50;5.77;;;4.00;99.90;;;;;;5005071;28;20464;-70
2022/04/01 11:12:29;;;;;;;7.83;6.20;;;3.90;99.90;;;;;;5005406;28;20473;-71
2022/04/01 11:15:12;;;;;;;7.40;5.90;;;3.90;99.90;;;;;;5002011;28;20500;-68
2022/04/01 11:18:04;;;;;;;7.70;6.70;;;3.80;99.90;;;;;;4999486;28;20501;-69
2022/04/01 11:20:35;;;;;;;8.30;6.60;;;3.90;99.90;;;;;;5007148;28;20467;-70
2022/04/01 11:23:04;;;;;;;7.43;5.53;;;4.00;99.90;;;;;;5008828;28;20449;-70
2022/04/01 11:25:54;;;;;;;5.97;5.23;;;4.00;99.90;;;;;;4999268;28;20512;-69
2022/04/01 11:28:22;;;;;;;6.10;5.40;;;3.90;99.90;;;;;;5006136;28;20824;-70
2022/04/01 11:31:22;;;;;;;7.30;6.30;;;3.80;99.90;;;;;;5009313;28;20482;-70
2022/04/01 11:34:01;;;;;;;8.10;5.97;;;3.70;99.90;;;;;;4956147;28;20993;-69
2022/04/01 11:36:29;;;;;;;6.83;6.13;;;3.50;99.90;;;;;;4946824;28;20988;-70
2022/04/01 11:38:56;;;;;;;8.60;6.63;;;3.50;99.90;;;;;;4996584;28;20463;-70
2022/04/01 11:41:24;;;;;;;7.20;6.17;;;3.50;99.90;;;;;;5012071;28;20478;-71
2022/04/01 11:43:52;;;;;;;6.57;5.73;;;3.50;99.90;;;;;;4999785;28;20481;-69
2022/04/01 11:46:19;;;;;;;8.00;5.80;;;3.50;99.90;;;;;;5006381;28;21211;-69
2022/04/01 11:48:48;;;;;;;10.20;7.77;;;3.50;99.90;;;;;;5007041;28;20462;-70
2022/04/01 11:51:16;;;;;;;7.73;6.53;;;3.60;99.90;;;;;;5004487;28;20485;-70
2022/04/01 11:53:46;;;;;;;8.57;6.80;;;3.60;99.90;;;;;;4999456;28;20847;-69
2022/04/01 11:56:14;;;;;;;8.43;6.70;;;3.60;99.90;;;;;;5008237;28;20600;-70
2022/04/01 11:58:54;;;;;;;7.70;6.40;;;3.70;99.90;;;;;;5010980;28;20458;-70
2022/04/01 12:01:22;;;;;;;9.00;7.37;;;3.70;99.90;;;;;;5003931;28;20500;-71
2022/04/01 12:03:50;;;;;;;9.20;7.33;;;3.60;99.90;;;;;;5010093;28;20464;-70
2022/04/01 12:09:06;;;;;;;10.47;9.03;;;3.60;99.90;;;;;;5013104;28;20452;-70
2022/04/01 12:11:40;;;;;;;10.47;8.90;;;3.50;99.90;;;;;;5005311;28;20493;-70
2022/04/01 12:14:09;;;;;;;10.20;8.60;;;3.40;99.90;;;;;;5004534;28;20459;-69
2022/04/01 12:16:40;;;;;;;10.03;8.33;;;3.40;99.90;;;;;;5007154;28;20979;-69
2022/04/01 12:19:07;;;;;;;11.10;8.87;;;3.50;99.90;;;;;;5007223;28;20449;-69
2022/04/01 12:21:34;;;;;;;9.50;8.20;;;3.60;99.90;;;;;;5010658;28;20454;-69
2022/04/01 12:24:02;;;;;;;9.67;8.47;;;3.70;99.90;;;;;;5012301;28;20488;-68
2022/04/01 12:26:29;;;;;;;10.17;8.57;;;3.50;99.90;;;;;;5011523;28;20466;-68
2022/04/01 12:28:55;;;;;;;11.37;8.43;;;3.50;99.90;;;;;;5010128;28;20465;-69
2022/04/01 12:31:25;;;;;;;10.90;9.10;;;3.40;99.90;;;;;;5009004;28;20493;-69
2022/04/01 12:33:54;;;;;;;9.70;8.50;;;3.40;99.90;;;;;;5010091;28;20461;-68
2022/04/01 12:36:31;;;;;;;10.63;8.97;;;3.30;99.90;;;;;;5010049;28;20452;-69
2022/04/01 12:39:04;;;;;;;11.53;8.90;;;3.10;99.90;;;;;;5010974;28;20453;-68
2022/04/01 12:41:31;;;;;;;11.77;9.30;;;2.90;99.90;;;;;;5006205;28;20486;-70
2022/04/01 12:44:00;;;;;;;12.90;10.20;;;2.70;99.90;;;;;;5005275;28;20484;-69
2022/04/01 12:46:33;;;;;;;14.40;11.00;;;2.60;99.90;;;;;;5006232;28;20545;-69
2022/04/01 12:49:10;;;;;;;14.67;12.00;;;2.60;99.90;;;;;;5009669;28;21038;-72
2022/04/01 12:51:39;;;;;;;13.60;12.00;;;2.80;99.90;;;;;;5005104;28;20481;-69
2022/04/01 12:54:08;;;;;;;12.60;9.97;;;2.90;99.90;;;;;;5002373;28;20481;-68
2022/04/01 12:56:37;;;;;;;14.27;11.27;;;2.90;99.90;;;;;;5001711;28;20460;-68
2022/04/01 12:59:06;;;;;;;14.87;11.03;;;2.80;99.90;;;;;;5000041;28;20461;-68
2022/04/01 13:01:37;;;;;;;15.87;12.40;;;2.70;99.90;;;;;;5001165;28;20494;-70
2022/04/01 13:04:04;;;;;;;22.97;18.67;;;2.70;99.90;;;;;;5003349;28;21040;-68
2022/04/01 13:06:31;;;;;;;25.70;19.30;;;2.80;99.90;;;;;;5005437;28;21003;-68
2022/04/01 13:09:04;;;;;;;26.00;19.40;;;2.90;99.90;;;;;;5010408;28;20981;-68
2022/04/01 13:11:39;;;;;;;20.40;15.93;;;3.00;99.90;;;;;;5008999;28;20489;-69
2022/04/01 13:14:18;;;;;;;16.73;13.63;;;3.10;99.90;;;;;;5004915;28;20489;-69